createdAt,value
2018-05-17T00:01:48.552Z,101335.64
2018-05-17T00:06:49.528Z,101338.45
2018-05-17T00:11:50.471Z,101341.39
2018-05-17T00:16:51.666Z,101342.26
2018-05-17T00:21:52.694Z,101347.92
2018-05-17T00:26:53.666Z,101344.63
2018-05-17T00:31:54.643Z,101344.61
2018-05-17T00:36:55.608Z,101336.52
2018-05-17T00:41:56.583Z,101331.11
2018-05-17T00:46:57.569Z,101324.41
2018-05-17T00:51:58.556Z,101338.31
2018-05-17T00:56:59.532Z,101335.13
2018-05-17T01:02:00.522Z,101333.38
2018-05-17T01:07:01.510Z,101331.13
2018-05-17T01:12:02.515Z,101332.56
2018-05-17T01:17:03.512Z,101325.08
2018-05-17T01:22:04.529Z,101325.19
2018-05-17T01:27:05.513Z,101319.71
2018-05-17T01:32:06.486Z,101323.99
2018-05-17T01:37:19.836Z,101320.88
2018-05-17T01:42:20.798Z,101317.48
2018-05-17T01:47:21.762Z,101325.97
2018-05-17T01:52:22.752Z,101320.09
2018-05-17T01:57:23.736Z,101308.95
2018-05-17T02:02:24.708Z,101311.37
2018-05-17T02:07:25.698Z,101317.19
2018-05-17T02:12:26.688Z,101313.51
2018-05-17T02:17:27.676Z,101309.14
2018-05-17T02:22:28.667Z,101315.04
2018-05-17T02:27:29.670Z,101310.44
2018-05-17T02:32:30.652Z,101310.41
2018-05-17T02:37:31.638Z,101319.75
2018-05-17T02:42:32.629Z,101315.80
2018-05-17T02:47:33.616Z,101309.89
2018-05-17T02:52:34.609Z,101310.34
2018-05-17T02:57:35.589Z,101301.99
2018-05-17T03:02:36.591Z,101298.08
2018-05-17T03:07:37.557Z,101299.62
2018-05-17T03:12:38.540Z,101295.77
2018-05-17T03:17:39.518Z,101293.27
2018-05-17T03:22:40.519Z,101291.86
2018-05-17T03:27:41.492Z,101295.65
2018-05-17T03:32:42.469Z,101301.53
2018-05-17T03:37:43.449Z,101296.77
2018-05-17T03:42:44.428Z,101293.49
2018-05-17T03:47:45.401Z,101287.47
2018-05-17T03:52:46.375Z,101289.05
2018-05-17T03:57:47.367Z,101285.84
2018-05-17T04:03:00.605Z,101288.13
2018-05-17T04:08:01.588Z,101276.53
2018-05-17T04:13:02.551Z,101275.61
2018-05-17T04:18:03.543Z,101282.42
2018-05-17T04:23:04.560Z,101278.38
2018-05-17T04:28:05.555Z,101277.89
2018-05-17T04:33:06.526Z,101270.03
2018-05-17T04:38:07.507Z,101274.37
2018-05-17T04:43:08.503Z,101278.88
2018-05-17T04:48:09.516Z,101273.01
2018-05-17T04:53:10.491Z,101273.61
2018-05-17T04:58:11.463Z,101266.34
2018-05-17T05:03:12.449Z,101261.48
2018-05-17T05:08:13.438Z,101263.17
2018-05-17T05:13:14.434Z,101263.52
2018-05-17T05:18:15.432Z,101261.06
2018-05-17T05:23:16.439Z,101263.05
2018-05-17T05:28:17.400Z,101256.13
2018-05-17T05:33:18.386Z,101264.95
2018-05-17T05:38:19.373Z,101273.05
2018-05-17T05:43:20.367Z,101266.27
2018-05-17T05:48:21.320Z,101266.30
2018-05-17T05:53:22.285Z,101264.61
2018-05-17T05:58:23.267Z,101277.60
2018-05-17T06:03:31.161Z,101268.05
2018-05-17T06:08:32.175Z,101278.92
2018-05-17T06:13:33.149Z,101276.97
2018-05-17T06:18:34.108Z,101283.21
2018-05-17T06:23:35.135Z,101284.23
2018-05-17T06:28:36.108Z,101278.83
2018-05-17T06:33:37.090Z,101277.82
2018-05-17T06:38:38.061Z,101273.61
2018-05-17T06:43:39.035Z,101267.69
2018-05-17T06:48:40.003Z,101274.13
2018-05-17T06:53:40.988Z,101282.00
2018-05-17T06:58:41.988Z,101284.95
2018-05-17T07:03:42.959Z,101275.00
2018-05-17T07:08:43.923Z,101280.45
2018-05-17T07:13:44.953Z,101285.75
2018-05-17T07:18:46.299Z,101287.39
2018-05-17T07:23:46.938Z,101282.72
2018-05-17T07:28:47.910Z,101283.06
2018-05-17T07:33:48.872Z,101286.53
2018-05-17T07:38:49.849Z,101287.53
2018-05-17T07:43:50.851Z,101286.47
2018-05-17T07:48:51.888Z,101297.77
2018-05-17T07:53:52.884Z,101295.07
2018-05-17T07:58:53.849Z,101294.67
2018-05-17T08:03:54.805Z,101300.80
2018-05-17T08:08:55.779Z,101307.95
2018-05-17T08:13:56.752Z,101304.45
2018-05-17T08:18:58.162Z,101307.14
2018-05-17T08:23:59.217Z,101303.05
2018-05-17T08:29:00.315Z,101315.70
2018-05-17T08:39:10.266Z,101317.33
2018-05-17T08:44:11.334Z,101317.20
2018-05-17T08:49:12.348Z,101313.86
2018-05-17T08:54:13.365Z,101314.40
2018-05-17T08:59:14.384Z,101313.34
2018-05-17T09:04:15.383Z,101313.14
2018-05-17T09:09:16.365Z,101316.41
2018-05-17T09:14:17.359Z,101313.16
2018-05-17T09:19:18.397Z,101307.73
2018-05-17T09:24:19.432Z,101305.44
2018-05-17T09:29:20.492Z,101311.87
2018-05-17T09:34:21.576Z,101314.28
2018-05-17T09:39:22.555Z,101319.44
2018-05-17T09:44:23.562Z,101318.61
2018-05-17T09:49:24.574Z,101329.75
2018-05-17T09:54:25.675Z,101325.47
2018-05-17T09:59:26.664Z,101330.27
2018-05-17T10:04:27.644Z,101323.80
2018-05-17T10:09:28.618Z,101324.13
2018-05-17T10:14:29.627Z,101324.72
2018-05-17T10:19:30.645Z,101327.94
2018-05-17T10:24:31.695Z,101315.59
2018-05-17T10:29:32.772Z,101313.95
2018-05-17T10:34:33.738Z,101321.59
2018-05-17T10:39:34.752Z,101316.36
2018-05-17T10:44:35.745Z,101320.41
2018-05-17T10:49:36.752Z,101311.81
2018-05-17T10:54:37.796Z,101310.49
2018-05-17T10:59:38.764Z,101314.98
2018-05-17T11:04:39.732Z,101316.05
2018-05-17T11:09:40.741Z,101327.40
2018-05-17T11:14:41.730Z,101318.98
2018-05-17T11:19:42.699Z,101323.52
2018-05-17T11:24:43.704Z,101312.16
2018-05-17T11:29:44.687Z,101318.37
2018-05-17T11:34:45.666Z,101313.53
2018-05-17T11:39:46.681Z,101312.44
2018-05-17T11:44:47.648Z,101314.83
2018-05-17T11:49:48.652Z,101323.69
2018-05-17T11:54:49.644Z,101317.48
2018-05-17T11:59:50.609Z,101315.64
2018-05-17T12:04:51.606Z,101323.78
2018-05-17T12:09:59.661Z,101320.41
2018-05-17T12:15:00.648Z,101318.58
2018-05-17T12:20:02.071Z,101323.98
2018-05-17T12:25:03.364Z,101322.22
2018-05-17T12:30:04.339Z,101319.66
2018-05-17T12:35:05.371Z,101320.81
2018-05-17T12:40:06.375Z,101311.41
2018-05-17T12:45:07.375Z,101325.74
2018-05-17T12:50:08.409Z,101326.91
2018-05-17T12:55:09.386Z,101322.08
2018-05-17T13:00:10.369Z,101322.23
2018-05-17T13:05:29.159Z,101326.86
2018-05-17T13:10:30.154Z,101313.12
2018-05-17T13:15:31.208Z,101317.90
2018-05-17T13:20:32.193Z,101316.58
2018-05-17T13:25:33.214Z,101320.55
2018-05-17T13:30:34.223Z,101324.29
2018-05-17T13:35:35.234Z,101310.86
2018-05-17T13:40:36.307Z,101307.59
2018-05-17T13:45:37.306Z,101319.62
2018-05-17T13:50:38.325Z,101307.15
2018-05-17T13:55:39.383Z,101314.92
2018-05-17T14:00:40.279Z,101318.31
2018-05-17T14:05:41.276Z,101314.68
2018-05-17T14:10:42.264Z,101319.75
2018-05-17T14:15:43.293Z,101316.69
2018-05-17T14:20:44.293Z,101316.63
2018-05-17T14:25:45.284Z,101312.73
2018-05-17T14:30:46.257Z,101311.45
2018-05-17T14:35:47.224Z,101310.12
2018-05-17T14:40:48.208Z,101311.49
2018-05-17T14:45:49.221Z,101305.30
2018-05-17T14:50:50.213Z,101311.91
2018-05-17T14:55:51.502Z,101308.35
2018-05-17T15:00:52.440Z,101310.29
2018-05-17T15:05:53.418Z,101305.27
2018-05-17T15:10:54.439Z,101317.92
2018-05-17T15:15:55.423Z,101317.89
2018-05-17T15:20:56.393Z,101320.04
2018-05-17T15:25:57.489Z,101308.33
2018-05-17T15:30:59.911Z,101316.48
2018-05-17T15:36:00.971Z,101312.02
2018-05-17T15:41:01.981Z,101310.87
2018-05-17T15:46:03.018Z,101307.52
2018-05-17T15:51:04.049Z,101300.37
2018-05-17T15:56:05.082Z,101302.30
2018-05-17T16:01:06.068Z,101304.16
2018-05-17T16:06:07.081Z,101301.06
2018-05-17T16:11:08.081Z,101300.34
2018-05-17T16:16:09.430Z,101303.30
2018-05-17T16:21:10.457Z,101302.56
2018-05-17T16:26:11.524Z,101292.08
2018-05-17T16:31:12.520Z,101290.23
2018-05-17T16:36:13.499Z,101293.41
2018-05-17T16:41:14.516Z,101295.70
2018-05-17T16:46:15.543Z,101296.91
2018-05-17T16:51:16.596Z,101293.38
2018-05-17T16:56:17.616Z,101291.80
2018-05-17T17:01:18.692Z,101297.25
2018-05-17T17:06:19.712Z,101298.09
2018-05-17T17:11:20.716Z,101305.98
2018-05-17T17:16:21.716Z,101301.33
2018-05-17T17:21:22.723Z,101304.53
2018-05-17T17:26:23.791Z,101304.05
2018-05-17T17:31:24.823Z,101306.30
2018-05-17T17:36:25.862Z,101300.16
2018-05-17T17:41:26.941Z,101302.83
2018-05-17T17:46:27.930Z,101309.98
2018-05-17T17:51:28.945Z,101305.30
2018-05-17T17:56:30.006Z,101306.22
2018-05-17T18:01:31.020Z,101307.98
2018-05-17T18:06:32.887Z,101306.84
2018-05-17T18:11:33.925Z,101305.08
2018-05-17T18:16:34.930Z,101304.80
2018-05-17T18:21:36.520Z,101312.69
2018-05-17T18:26:37.676Z,101307.71
2018-05-17T18:31:38.866Z,101314.39
2018-05-17T18:36:46.961Z,101312.22
2018-05-17T18:41:48.289Z,101316.08
2018-05-17T18:46:49.299Z,101316.58
2018-05-17T18:51:50.493Z,101312.45
2018-05-17T18:56:51.637Z,101334.54
2018-05-17T19:01:53.538Z,101330.41
2018-05-17T19:06:54.630Z,101339.78
2018-05-17T19:11:56.421Z,101337.20
2018-05-17T19:16:57.691Z,101343.17
2018-05-17T19:21:58.774Z,101355.98
2018-05-17T19:27:00.158Z,101358.31
2018-05-17T19:32:01.343Z,101367.16
2018-05-17T19:37:02.484Z,101364.19
2018-05-17T19:42:03.507Z,101363.69
2018-05-17T19:47:04.568Z,101372.37
2018-05-17T19:52:05.659Z,101369.53
2018-05-17T19:57:06.789Z,101369.80
2018-05-17T20:02:07.864Z,101379.68
2018-05-17T20:07:08.916Z,101384.51
2018-05-17T20:12:09.985Z,101378.00
2018-05-17T20:17:11.024Z,101384.19
2018-05-17T20:22:12.044Z,101381.19
2018-05-17T20:27:13.057Z,101387.90
2018-05-17T20:32:14.073Z,101386.19
2018-05-17T20:37:15.143Z,101388.34
2018-05-17T20:42:16.150Z,101379.43
2018-05-17T20:47:17.169Z,101386.45
2018-05-17T20:52:18.174Z,101384.20
2018-05-17T20:57:19.187Z,101379.37
2018-05-17T21:02:20.196Z,101385.19
2018-05-17T21:07:21.197Z,101382.83
2018-05-17T21:12:22.213Z,101381.67
2018-05-17T21:17:23.230Z,101390.82
2018-05-17T21:22:24.238Z,101391.19
2018-05-17T21:27:25.261Z,101393.73
2018-05-17T21:32:26.266Z,101396.19
2018-05-17T21:37:27.272Z,101393.29
2018-05-17T21:42:28.303Z,101381.41
2018-05-17T21:47:29.381Z,101390.08
2018-05-17T21:52:30.400Z,101387.51
2018-05-17T21:57:31.496Z,101394.41
2018-05-17T22:02:32.504Z,101388.28
2018-05-17T22:07:33.564Z,101384.73
2018-05-17T22:12:34.455Z,101390.27
2018-05-17T22:17:35.447Z,101384.50
2018-05-17T22:22:36.421Z,101382.53
2018-05-17T22:27:37.418Z,101381.66
2018-05-17T22:32:38.415Z,101380.58
2018-05-17T22:37:39.398Z,101380.27
2018-05-17T22:42:40.405Z,101374.75
2018-05-17T22:47:43.220Z,101382.66
2018-05-17T22:52:44.237Z,101380.98
2018-05-17T22:57:57.508Z,101386.19
2018-05-17T23:02:58.499Z,101389.52
2018-05-17T23:07:59.459Z,101393.09
2018-05-17T23:13:00.478Z,101391.83
2018-05-17T23:18:01.703Z,101387.62
2018-05-17T23:23:02.768Z,101392.54
2018-05-17T23:28:03.764Z,101384.64
2018-05-17T23:33:04.781Z,101385.67
2018-05-17T23:38:05.765Z,101391.76
2018-05-17T23:43:06.754Z,101386.44
2018-05-17T23:48:07.722Z,101381.36
2018-05-17T23:53:08.707Z,101354.06
2018-05-17T23:58:09.685Z,101370.27
